createdAt,value
2019-04-16T00:00:51.152Z,13.80
2019-04-16T00:05:59.161Z,16.07
2019-04-16T00:11:09.440Z,20.30
2019-04-16T00:16:14.892Z,16.60
2019-04-16T00:21:47.085Z,15.50
2019-04-16T00:26:52.550Z,15.53
2019-04-16T00:31:59.449Z,17.47
2019-04-16T00:37:04.805Z,16.37
2019-04-16T00:42:11.297Z,17.40
2019-04-16T00:47:35.712Z,17.80
2019-04-16T00:53:00.013Z,19.57
2019-04-16T00:58:19.797Z,18.30
2019-04-16T01:03:24.813Z,18.40
2019-04-16T01:08:53.919Z,18.63
2019-04-16T01:14:00.725Z,16.87
2019-04-16T01:19:10.067Z,19.33
2019-04-16T01:24:34.019Z,18.50
2019-04-16T01:29:39.471Z,18.30
2019-04-16T01:34:55.275Z,18.30
2019-04-16T01:40:21.826Z,18.57
2019-04-16T01:45:29.787Z,19.40
2019-04-16T01:50:35.515Z,19.37
2019-04-16T01:55:42.443Z,18.57
2019-04-16T02:00:47.771Z,18.73
2019-04-16T02:05:54.890Z,18.33
2019-04-16T02:11:00.431Z,18.30
2019-04-16T02:16:25.928Z,16.33
2019-04-16T02:21:32.772Z,19.20
2019-04-16T02:26:38.225Z,18.10
2019-04-16T02:32:02.727Z,16.77
2019-04-16T02:37:27.342Z,16.03
2019-04-16T02:42:33.017Z,17.37
2019-04-16T02:47:41.879Z,16.57
2019-04-16T02:52:50.464Z,17.43
2019-04-16T02:58:01.833Z,16.47
2019-04-16T03:03:09.191Z,16.47
2019-04-16T03:08:14.550Z,16.03
2019-04-16T03:13:22.979Z,15.77
2019-04-16T03:18:28.025Z,15.17
2019-04-16T03:23:36.730Z,16.23
2019-04-16T03:28:40.403Z,17.90
2019-04-16T03:34:05.044Z,15.70
2019-04-16T03:39:22.100Z,15.83
2019-04-16T03:44:38.956Z,15.60
2019-04-16T03:49:56.360Z,15.80
2019-04-16T03:55:03.204Z,16.30
2019-04-16T04:00:27.818Z,17.50
2019-04-16T04:05:35.076Z,14.77
2019-04-16T04:10:52.058Z,15.20
2019-04-16T04:15:58.599Z,14.90
2019-04-16T04:21:04.708Z,15.30
2019-04-16T04:26:29.229Z,13.27
2019-04-16T04:31:53.932Z,13.87
2019-04-16T04:37:11.085Z,12.93
2019-04-16T04:42:28.420Z,12.73
2019-04-16T04:47:34.586Z,14.00
2019-04-16T04:52:40.379Z,14.87
2019-04-16T04:57:45.923Z,13.20
2019-04-16T05:03:15.514Z,12.43
2019-04-16T05:08:33.546Z,11.30
2019-04-16T05:13:39.271Z,12.47
2019-04-16T05:18:44.815Z,12.13
2019-04-16T05:23:50.437Z,11.03
2019-04-16T05:28:57.931Z,12.10
2019-04-16T05:34:06.059Z,11.33
2019-04-16T05:39:10.532Z,12.73
2019-04-16T05:44:35.331Z,12.47
2019-04-16T05:49:40.763Z,12.83
2019-04-16T05:55:01.522Z,12.53
2019-04-16T06:00:10.497Z,12.57
2019-04-16T06:05:37.915Z,12.93
2019-04-16T06:10:43.268Z,14.10
2019-04-16T06:15:54.089Z,12.87
2019-04-16T06:21:06.870Z,14.07
2019-04-16T06:26:35.155Z,15.70
2019-04-16T06:31:48.948Z,14.53
2019-04-16T06:37:20.976Z,15.30
2019-04-16T06:42:47.516Z,14.63
2019-04-16T06:48:00.675Z,14.40
2019-04-16T06:53:26.537Z,16.63
2019-04-16T06:58:50.339Z,15.03
2019-04-16T07:03:59.641Z,14.83
2019-04-16T07:09:23.421Z,14.27
2019-04-16T07:14:27.517Z,14.13
2019-04-16T07:19:33.635Z,13.53
2019-04-16T07:24:39.926Z,13.60
2019-04-16T07:35:21.837Z,13.37
2019-04-16T07:40:31.716Z,12.47
2019-04-16T07:45:51.755Z,13.03
2019-04-16T07:51:01.568Z,11.73
2019-04-16T07:56:14.440Z,10.73
2019-04-16T08:01:22.115Z,12.17
2019-04-16T08:06:27.837Z,10.53
2019-04-16T08:11:34.896Z,10.20
2019-04-16T08:16:47.283Z,9.00
2019-04-16T08:22:08.247Z,8.00
2019-04-16T08:27:17.821Z,7.13
2019-04-16T08:32:20.979Z,5.80
2019-04-16T08:37:26.400Z,6.33
2019-04-16T08:42:43.889Z,8.07
2019-04-16T08:47:38.896Z,8.73
2019-04-16T08:52:44.457Z,7.67
2019-04-16T08:57:50.059Z,5.53
2019-04-16T09:02:58.071Z,5.93
2019-04-16T09:08:12.384Z,5.80
2019-04-16T09:13:24.541Z,6.10
2019-04-16T09:18:49.936Z,5.13
2019-04-16T09:24:14.056Z,4.97
2019-04-16T09:29:39.141Z,4.90
2019-04-16T09:35:08.130Z,5.53
2019-04-16T09:40:15.977Z,6.60
2019-04-16T09:45:12.329Z,5.87
2019-04-16T09:50:17.897Z,6.43
2019-04-16T09:55:23.497Z,5.83
2019-04-16T10:00:36.339Z,5.53
2019-04-16T10:05:41.329Z,6.50
2019-04-16T10:10:46.399Z,6.20
2019-04-16T10:15:51.667Z,6.30
2019-04-16T10:20:57.016Z,7.67
2019-04-16T10:26:01.970Z,6.33
2019-04-16T10:31:07.838Z,6.50
2019-04-16T10:36:13.487Z,5.80
2019-04-16T10:47:00.429Z,5.47
2019-04-16T10:52:07.759Z,5.67
2019-04-16T10:57:27.080Z,5.67
2019-04-16T11:02:36.797Z,5.80
2019-04-16T11:07:44.050Z,5.27
2019-04-16T11:12:49.411Z,4.43
2019-04-16T11:17:54.990Z,4.80
2019-04-16T11:23:00.214Z,5.10
2019-04-16T11:28:05.442Z,5.40
2019-04-16T11:33:10.950Z,5.53
2019-04-16T11:38:17.729Z,5.63
2019-04-16T11:43:23.228Z,4.53
2019-04-16T11:48:28.683Z,5.30
2019-04-16T11:53:34.510Z,5.40
2019-04-16T11:58:46.145Z,4.80
2019-04-16T12:03:56.124Z,4.67
2019-04-16T12:09:17.152Z,4.83
2019-04-16T12:14:41.811Z,5.23
2019-04-16T12:19:47.126Z,5.40
2019-04-16T12:25:10.757Z,5.83
2019-04-16T12:30:32.040Z,4.60
2019-04-16T12:35:45.527Z,4.77
2019-04-16T12:41:09.045Z,3.90
2019-04-16T12:46:18.845Z,4.20
2019-04-16T12:51:28.060Z,3.97
2019-04-16T12:56:52.479Z,3.87
2019-04-16T13:01:59.439Z,4.33
2019-04-16T13:07:09.481Z,4.33
2019-04-16T13:12:22.999Z,3.70
2019-04-16T13:17:39.240Z,3.93
2019-04-16T13:22:54.839Z,3.63
2019-04-16T13:28:20.350Z,3.60
2019-04-16T13:33:26.885Z,3.47
2019-04-16T13:38:37.560Z,3.40
2019-04-16T13:43:51.966Z,4.03
2019-04-16T13:48:59.619Z,3.70
2019-04-16T13:54:10.524Z,3.20
2019-04-16T14:04:21.565Z,3.63
2019-04-16T14:09:27.359Z,3.40
2019-04-16T14:14:32.706Z,3.17
2019-04-16T14:19:38.812Z,3.73
2019-04-16T14:24:44.354Z,3.60
2019-04-16T14:29:49.882Z,3.27
2019-04-16T14:34:56.922Z,4.40
2019-04-16T14:40:15.642Z,3.20
2019-04-16T14:45:22.763Z,3.40
2019-04-16T14:50:28.921Z,4.27
2019-04-16T14:55:59.031Z,3.20
2019-04-16T15:00:53.123Z,3.10
2019-04-16T15:06:12.133Z,3.57
2019-04-16T15:11:35.530Z,2.83
2019-04-16T15:16:45.482Z,3.30
2019-04-16T15:21:58.695Z,3.00
2019-04-16T15:27:17.840Z,2.83
2019-04-16T15:32:30.705Z,2.97
2019-04-16T15:37:46.717Z,2.93
2019-04-16T15:42:56.353Z,2.30
2019-04-16T15:48:18.080Z,2.63
2019-04-16T15:53:23.668Z,2.43
2019-04-16T15:58:32.539Z,3.10
2019-04-16T16:03:48.612Z,4.90
2019-04-16T16:08:58.146Z,2.60
2019-04-16T16:14:03.901Z,2.73
2019-04-16T16:19:12.046Z,4.33
2019-04-16T16:24:16.555Z,4.10
2019-04-16T16:29:22.157Z,3.83
2019-04-16T16:34:27.671Z,3.53
2019-04-16T16:39:33.424Z,3.50
2019-04-16T16:44:39.042Z,3.03
2019-04-16T16:49:44.499Z,5.47
2019-04-16T16:54:51.187Z,3.07
2019-04-16T17:00:03.899Z,4.70
2019-04-16T17:05:10.819Z,3.43
2019-04-16T17:10:27.977Z,8.80
2019-04-16T17:15:33.040Z,4.83
2019-04-16T17:20:38.308Z,5.97
2019-04-16T17:25:45.121Z,6.00
2019-04-16T17:30:50.377Z,6.93
2019-04-16T17:35:55.794Z,7.43
2019-04-16T17:41:05.128Z,6.20
2019-04-16T17:51:53.510Z,6.53
2019-04-16T17:57:22.947Z,6.83
2019-04-16T18:02:28.082Z,7.10
2019-04-16T18:07:38.925Z,8.03
2019-04-16T18:12:56.483Z,7.50
2019-04-16T18:18:03.308Z,7.90
2019-04-16T18:23:10.342Z,9.07
2019-04-16T18:28:25.826Z,7.90
2019-04-16T18:33:32.459Z,10.33
2019-04-16T18:39:15.193Z,9.93
2019-04-16T18:44:37.325Z,10.50
2019-04-16T18:50:05.999Z,11.03
2019-04-16T18:55:11.674Z,11.83
2019-04-16T19:05:57.045Z,12.30
2019-04-16T19:11:02.851Z,13.73
2019-04-16T19:16:08.208Z,11.37
2019-04-16T19:21:13.482Z,8.43
2019-04-16T19:26:18.722Z,8.50
2019-04-16T19:31:24.216Z,8.60
2019-04-16T19:36:49.025Z,9.83
2019-04-16T19:41:57.204Z,9.03
2019-04-16T19:47:01.308Z,9.93
2019-04-16T19:52:06.592Z,9.57
2019-04-16T19:57:12.087Z,11.03
2019-04-16T20:02:17.902Z,9.90
2019-04-16T20:07:23.072Z,9.97
2019-04-16T20:12:28.866Z,9.87
2019-04-16T20:17:34.239Z,9.30
2019-04-16T20:22:39.476Z,11.47
2019-04-16T20:27:44.438Z,10.87
2019-04-16T20:32:49.790Z,10.00
2019-04-16T20:37:55.297Z,10.10
2019-04-16T20:43:01.163Z,13.40
2019-04-16T20:48:09.107Z,14.23
2019-04-16T20:53:13.086Z,13.80
2019-04-16T20:58:18.414Z,13.37
2019-04-16T21:03:23.630Z,13.23
2019-04-16T21:08:28.843Z,14.47
2019-04-16T21:13:34.019Z,13.97
2019-04-16T21:18:39.606Z,19.53
2019-04-16T21:23:44.732Z,30.47
2019-04-16T21:28:55.009Z,24.40
2019-04-16T21:34:24.159Z,20.30
2019-04-16T21:39:26.946Z,18.10
2019-04-16T21:44:31.831Z,17.10
2019-04-16T21:49:38.929Z,14.17
2019-04-16T21:54:43.832Z,15.50
2019-04-16T21:59:50.319Z,14.33
2019-04-16T22:04:56.204Z,13.83
2019-04-16T22:10:03.134Z,13.93
2019-04-16T22:15:08.754Z,15.27
2019-04-16T22:20:13.750Z,14.27
2019-04-16T22:25:19.311Z,13.67
2019-04-16T22:30:24.463Z,15.17
2019-04-16T22:35:31.813Z,16.20
2019-04-16T22:40:44.136Z,15.00
2019-04-16T22:45:52.365Z,14.87
2019-04-16T22:50:57.880Z,15.40
2019-04-16T22:56:03.270Z,15.40
2019-04-16T23:01:08.791Z,14.60
2019-04-16T23:06:14.051Z,14.37
2019-04-16T23:11:39.059Z,13.63
2019-04-16T23:16:44.803Z,13.27
2019-04-16T23:21:50.105Z,13.17
2019-04-16T23:26:55.471Z,13.30
2019-04-16T23:32:00.750Z,13.40
2019-04-16T23:37:08.738Z,13.17
2019-04-16T23:42:18.830Z,13.63
2019-04-16T23:47:22.209Z,12.10
2019-04-16T23:52:34.525Z,12.97
2019-04-16T23:57:57.559Z,13.50
